Time;durP1;ratioP1;P1;durP2;ratioP2;P2;SDS_P1;SDS_P2;PMS_P1;PMS_P2;Temp;Humidity;BMP_temperature;BMP_pressure;BME280_temperature;BME280_humidity;BME280_pressure;Samples;Min_cycle;Max_cycle;Signal;HPM_P1;HPM_P2
2022/08/25 00:00:47;;;;;;;13.55;4.95;;;;;;;18.78;100.00;100028.02;1750618;81;21102;-73
2022/08/25 00:03:14;;;;;;;12.37;4.80;;;;;;;18.79;100.00;100030.47;1745918;81;21063;-71
2022/08/25 00:05:42;;;;;;;12.18;4.58;;;;;;;18.83;100.00;100035.59;1743034;81;21098;-72
2022/08/25 00:08:08;;;;;;;10.13;4.60;;;;;;;18.86;100.00;100034.13;1733170;81;21810;-73
2022/08/25 00:10:37;;;;;;;10.93;4.78;;;;;;;18.85;100.00;100029.73;1746542;80;21110;-72
2022/08/25 00:13:03;;;;;;;12.98;4.47;;;;;;;18.78;100.00;100031.59;1752396;81;20957;-73
2022/08/25 00:15:31;;;;;;;13.32;5.10;;;;;;;18.76;100.00;100036.63;1758369;80;21020;-72
2022/08/25 00:17:58;;;;;;;11.50;4.20;;;;;;;18.73;100.00;100037.27;1748168;81;20967;-72
2022/08/25 00:20:25;;;;;;;10.10;5.00;;;;;;;18.62;100.00;100041.42;1750025;81;21038;-73
2022/08/25 00:22:52;;;;;;;12.40;4.95;;;;;;;18.50;100.00;100044.48;1748910;81;21813;-72
2022/08/25 00:25:18;;;;;;;10.15;4.58;;;;;;;18.38;100.00;100053.36;1745296;81;21409;-72
2022/08/25 00:27:46;;;;;;;10.93;4.20;;;;;;;18.29;100.00;100051.91;1749201;81;21519;-71
2022/08/25 00:30:15;;;;;;;9.75;4.58;;;;;;;18.20;100.00;100054.37;1754046;80;21039;-72
2022/08/25 00:32:43;;;;;;;11.15;4.90;;;;;;;18.10;100.00;100058.77;1745689;81;21020;-72
2022/08/25 00:35:10;;;;;;;12.53;4.53;;;;;;;18.00;100.00;100052.11;1746626;80;21066;-72
2022/08/25 00:37:37;;;;;;;10.93;4.75;;;;;;;17.95;100.00;100059.14;1741195;80;21026;-73
2022/08/25 00:40:05;;;;;;;14.63;4.60;;;;;;;17.92;100.00;100059.20;1735641;81;21107;-73
2022/08/25 00:42:32;;;;;;;11.03;5.10;;;;;;;17.92;100.00;100056.45;1749390;81;20995;-73
2022/08/25 00:44:58;;;;;;;12.00;5.37;;;;;;;17.87;100.00;100059.31;1745274;81;21570;-72
2022/08/25 00:47:25;;;;;;;13.43;4.67;;;;;;;17.84;100.00;100053.06;1740387;81;20999;-73
2022/08/25 00:49:56;;;;;;;14.05;5.42;;;;;;;17.86;100.00;100048.04;1730179;81;21090;-72
2022/08/25 00:52:32;;;;;;;13.40;5.08;;;;;;;17.85;100.00;100056.86;1745429;81;20971;-72
2022/08/25 00:55:10;;;;;;;13.58;4.85;;;;;;;17.81;100.00;100050.37;1740588;81;21011;-72
2022/08/25 00:57:43;;;;;;;9.88;4.58;;;;;;;17.78;100.00;100054.31;1743821;81;21414;-72
2022/08/25 01:00:21;;;;;;;12.00;4.87;;;;;;;17.74;100.00;100053.30;1747506;81;21055;-72
2022/08/25 01:02:47;;;;;;;13.15;4.92;;;;;;;17.71;100.00;100052.55;1729268;81;20976;-72
2022/08/25 01:05:14;;;;;;;15.98;5.17;;;;;;;17.62;100.00;100053.84;1746290;81;21570;-72
2022/08/25 01:07:41;;;;;;;11.97;4.53;;;;;;;17.52;100.00;100043.04;1708269;83;20984;-72
2022/08/25 01:10:08;;;;;;;10.53;4.50;;;;;;;17.40;100.00;100032.56;1742592;81;21058;-72
2022/08/25 01:12:36;;;;;;;12.93;4.97;;;;;;;17.45;100.00;100044.59;1756001;81;21015;-70
2022/08/25 01:15:04;;;;;;;16.10;5.30;;;;;;;17.43;100.00;100045.70;1723816;81;21076;-72
2022/08/25 01:17:47;;;;;;;12.63;5.17;;;;;;;17.41;100.00;100038.33;1750960;81;20987;-72
2022/08/25 01:20:15;;;;;;;10.70;4.85;;;;;;;17.46;100.00;100036.59;1730826;81;21043;-72
2022/08/25 01:22:41;;;;;;;14.05;4.97;;;;;;;17.54;100.00;100034.45;1751357;81;20981;-72
2022/08/25 01:25:23;;;;;;;11.48;4.97;;;;;;;17.56;100.00;100030.84;1739284;81;21598;-72
2022/08/25 01:27:49;;;;;;;12.33;4.90;;;;;;;17.60;100.00;100033.27;1748259;81;20982;-71
2022/08/25 01:30:16;;;;;;;11.53;4.92;;;;;;;17.62;100.00;100029.63;1736844;81;21105;-72
2022/08/25 01:32:43;;;;;;;10.78;4.75;;;;;;;17.68;100.00;100026.44;1749520;81;20965;-73
2022/08/25 01:35:09;;;;;;;10.03;4.45;;;;;;;17.72;100.00;100024.69;1750381;81;21035;-71
2022/08/25 01:37:36;;;;;;;13.88;5.72;;;;;;;17.70;100.00;100024.20;1746442;80;21302;-71
2022/08/25 01:40:05;;;;;;;10.63;4.80;;;;;;;17.69;100.00;100029.45;1739438;81;21229;-71
2022/08/25 01:42:56;;;;;;;12.33;5.45;;;;;;;17.72;100.00;100023.31;1704228;83;21455;-71
2022/08/25 01:45:23;;;;;;;14.35;4.75;;;;;;;17.75;100.00;100021.31;1700531;83;21058;-71
2022/08/25 01:47:49;;;;;;;10.10;4.65;;;;;;;17.68;100.00;100017.36;1712366;82;21020;-71
2022/08/25 01:50:16;;;;;;;13.05;4.35;;;;;;;17.60;100.00;100023.63;1703307;83;21044;-70
2022/08/25 01:53:08;;;;;;;10.68;4.65;;;;;;;17.55;100.00;100020.95;1716601;83;21050;-71
2022/08/25 01:55:50;;;;;;;11.78;4.95;;;;;;;17.51;100.00;100030.95;1676619;84;21121;-72
2022/08/25 01:58:04;;;;;;;13.03;4.90;;;;;;;17.45;100.00;100030.27;1685693;83;21894;-71
2022/08/25 02:00:31;;;;;;;14.50;5.05;;;;;;;17.41;100.00;100030.07;1712251;83;21432;-72
2022/08/25 02:02:57;;;;;;;16.70;4.70;;;;;;;17.42;100.00;100030.89;1704309;83;21057;-71
2022/08/25 02:05:23;;;;;;;;;;;;;;;17.43;100.00;100030.56;1715907;82;21044;-71
2022/08/25 02:07:50;;;;;;;13.35;4.40;;;;;;;17.41;100.00;100036.13;1713090;83;20153;-70
2022/08/25 02:10:18;;;;;;;12.33;4.35;;;;;;;17.30;100.00;100030.05;1703115;83;21067;-70
2022/08/25 02:12:44;;;;;;;12.15;4.95;;;;;;;17.32;100.00;100032.50;1705981;83;20952;-71
2022/08/25 02:15:11;;;;;;;;;;;;;;;17.36;100.00;100032.11;1712566;83;21051;-72
2022/08/25 02:17:38;;;;;;;11.97;5.30;;;;;;;17.33;100.00;100032.17;1715302;82;20121;-71
2022/08/25 02:20:06;;;;;;;17.15;5.28;;;;;;;17.23;100.00;100033.78;1717428;82;21641;-72
2022/08/25 02:22:33;;;;;;;19.73;4.87;;;;;;;17.25;100.00;100029.35;1715944;83;20955;-71
2022/08/25 02:24:59;;;;;;;15.58;4.97;;;;;;;17.27;100.00;100029.29;1712457;82;21475;-71
2022/08/25 02:27:26;;;;;;;10.05;4.50;;;;;;;17.25;100.00;100032.11;1713649;83;20987;-72
2022/08/25 02:29:52;;;;;;;;;;;;;;;17.21;100.00;100025.59;1711135;83;21019;-70
2022/08/25 02:32:18;;;;;;;11.48;4.47;;;;;;;17.22;100.00;100025.27;1705126;83;20113;-72
2022/08/25 02:34:44;;;;;;;;;;;;;;;17.23;100.00;100026.08;1715391;83;20967;-71
2022/08/25 02:37:11;;;;;;;14.33;4.37;;;;;;;17.22;100.00;100021.69;1714778;82;20122;-72
2022/08/25 02:39:37;;;;;;;9.80;4.30;;;;;;;17.12;100.00;100026.86;1711780;83;21004;-72
2022/08/25 02:42:04;;;;;;;10.38;4.58;;;;;;;17.15;100.00;100026.24;1703881;82;21039;-71
2022/08/25 02:44:31;;;;;;;10.82;4.28;;;;;;;17.22;100.00;100021.13;1752633;81;20954;-70
2022/08/25 02:46:57;;;;;;;12.35;4.58;;;;;;;17.26;100.00;100015.27;1746621;81;21964;-71
2022/08/25 02:49:24;;;;;;;13.15;4.85;;;;;;;17.29;100.00;100023.45;1746848;82;21465;-71
2022/08/25 02:51:50;;;;;;;;;;;;;;;17.33;100.00;100019.79;1749171;81;21051;-71
2022/08/25 02:54:17;;;;;;;12.82;4.75;;;;;;;17.38;100.00;100021.62;1747108;80;20338;-70
2022/08/25 02:56:43;;;;;;;9.03;4.25;;;;;;;17.33;100.00;100028.05;1735420;81;21067;-71
2022/08/25 02:59:10;;;;;;;13.22;4.72;;;;;;;17.28;100.00;100028.17;1729116;82;21014;-72
2022/08/25 03:01:36;;;;;;;11.83;4.42;;;;;;;17.26;100.00;100031.78;1716930;82;21078;-71
2022/08/25 03:04:02;;;;;;;;;;;;;;;17.26;100.00;100029.03;1747221;81;21548;-71
2022/08/25 03:06:29;;;;;;;12.05;4.35;;;;;;;17.33;100.00;100032.73;1746855;81;20107;-71
2022/08/25 03:08:56;;;;;;;12.58;5.28;;;;;;;17.26;100.00;100026.28;1746879;82;20997;-71
2022/08/25 03:11:24;;;;;;;10.18;4.30;;;;;;;17.22;100.00;100027.19;1758084;81;21103;-70
2022/08/25 03:13:50;;;;;;;12.30;4.25;;;;;;;17.21;100.00;100034.66;1724852;81;20974;-70
2022/08/25 03:16:17;;;;;;;;;;;;;;;17.24;100.00;100031.84;1736047;81;21015;-71
2022/08/25 03:18:43;;;;;;;13.50;4.25;;;;;;;17.23;100.00;100024.70;1711160;84;20167;-70
2022/08/25 03:21:10;;;;;;;8.58;4.40;;;;;;;17.12;100.00;100028.23;1714208;81;21023;-71
2022/08/25 03:23:37;;;;;;;11.45;4.30;;;;;;;17.06;100.00;100027.28;1724414;81;21019;-70
2022/08/25 03:28:49;;;;;;;9.78;4.33;;;;;;;17.11;100.00;100029.94;1756854;80;21012;-70
2022/08/25 03:31:15;;;;;;;10.10;4.42;;;;;;;17.10;100.00;100025.55;1758567;80;21510;-70
2022/08/25 03:33:41;;;;;;;8.33;4.25;;;;;;;17.10;100.00;100035.17;1743098;80;20956;-70
2022/08/25 03:36:10;;;;;;;10.98;4.37;;;;;;;17.12;100.00;100032.92;1745951;80;21052;-69
2022/08/25 03:38:37;;;;;;;10.05;4.40;;;;;;;17.19;100.00;100027.26;1729498;82;20988;-71
2022/08/25 03:41:16;;;;;;;9.90;4.50;;;;;;;17.24;100.00;100031.29;1757043;80;21557;-70
2022/08/25 03:43:42;;;;;;;14.55;5.53;;;;;;;17.23;100.00;100027.45;1742004;80;21063;-70
2022/08/25 03:46:11;;;;;;;;;;;;;;;17.24;100.00;100027.72;1749270;80;21066;-70
2022/08/25 03:48:37;;;;;;;17.12;9.00;;;;;;;17.26;100.00;100023.52;1756342;80;20430;-72
2022/08/25 03:51:04;;;;;;;19.98;10.78;;;;;;;17.25;100.00;100024.64;1764880;80;21609;-71
2022/08/25 03:53:31;;;;;;;22.40;13.38;;;;;;;17.27;100.00;100022.41;1760330;80;21696;-71
2022/08/25 03:55:57;;;;;;;39.98;23.40;;;;;;;17.28;100.00;100028.17;1760016;80;21121;-71
2022/08/25 03:58:24;;;;;;;;;;;;;;;17.27;100.00;100024.34;1741274;80;21038;-71
2022/08/25 04:00:50;;;;;;;21.33;12.80;;;;;;;17.33;100.00;100023.10;1751977;80;20101;-71
2022/08/25 04:03:17;;;;;;;25.65;15.60;;;;;;;17.39;100.00;100022.67;1764250;80;21470;-71
2022/08/25 04:05:44;;;;;;;24.00;15.05;;;;;;;17.46;100.00;100018.70;1762262;79;21098;-70
2022/08/25 04:08:11;;;;;;;27.27;16.12;;;;;;;17.53;100.00;100012.20;1761953;80;20983;-69
2022/08/25 04:10:37;;;;;;;;;;;;;;;17.70;100.00;100022.83;1748811;80;21034;-71
2022/08/25 04:13:04;;;;;;;20.92;15.10;;;;;;;17.89;100.00;100022.63;1740534;80;20113;-71
2022/08/25 04:15:31;;;;;;;18.35;12.33;;;;;;;18.05;100.00;100015.62;1759944;80;21526;-71
2022/08/25 04:17:57;;;;;;;16.42;8.10;;;;;;;18.19;100.00;100006.72;1752498;80;21011;-70
2022/08/25 04:20:24;;;;;;;14.25;7.47;;;;;;;18.37;100.00;100004.31;1763487;80;21074;-70
2022/08/25 04:22:50;;;;;;;16.02;7.33;;;;;;;18.55;100.00;100001.66;1751506;80;21513;-70
2022/08/25 04:25:17;;;;;;;12.00;5.85;;;;;;;18.72;100.00;100003.09;1750819;80;21034;-70
2022/08/25 04:27:43;;;;;;;11.90;5.50;;;;;;;18.86;100.00;100005.17;1755148;80;21018;-70
2022/08/25 04:30:11;;;;;;;8.70;4.50;;;;;;;19.05;100.00;99996.62;1759472;80;21134;-70
2022/08/25 04:32:39;;;;;;;16.52;5.37;;;;;;;19.21;100.00;99993.08;1761782;80;21019;-70
2022/08/25 04:35:06;;;;;;;9.60;4.62;;;;;;;19.38;100.00;99990.33;1755717;80;21050;-71
2022/08/25 04:37:33;;;;;;;9.40;4.80;;;;;;;19.57;100.00;99986.48;1746233;80;21391;-71
2022/08/25 04:40:00;;;;;;;16.40;5.10;;;;;;;19.75;100.00;99989.48;1750684;80;21976;-71
2022/08/25 04:42:26;;;;;;;11.97;5.62;;;;;;;19.89;100.00;99985.97;1751735;80;21398;-70
2022/08/25 04:44:53;;;;;;;11.75;5.53;;;;;;;20.01;100.00;99980.59;1745107;81;20965;-71
2022/08/25 04:47:19;;;;;;;13.45;5.03;;;;;;;20.18;100.00;99979.73;1738641;81;21015;-71
2022/08/25 04:49:46;;;;;;;13.45;5.00;;;;;;;20.39;100.00;99977.09;1747677;80;20955;-71
2022/08/25 04:52:13;;;;;;;9.53;4.78;;;;;;;20.57;100.00;99974.50;1704120;82;21070;-70
2022/08/25 04:54:40;;;;;;;9.83;4.50;;;;;;;20.75;100.00;99973.28;1745935;81;21530;-71
2022/08/25 04:57:06;;;;;;;7.90;4.22;;;;;;;20.98;100.00;99971.83;1738000;81;21580;-70
2022/08/25 04:59:33;;;;;;;10.70;4.78;;;;;;;21.16;100.00;99969.22;1746876;81;21360;-71
2022/08/25 05:02:04;;;;;;;10.82;5.17;;;;;;;21.30;100.00;99963.42;1746783;81;21113;-71
2022/08/25 05:04:32;;;;;;;11.00;4.40;;;;;;;21.48;100.00;99966.86;1755647;81;20987;-71
2022/08/25 05:06:59;;;;;;;11.78;4.85;;;;;;;21.59;100.00;99962.53;1743666;81;21071;-70
2022/08/25 05:09:26;;;;;;;12.37;4.72;;;;;;;21.70;100.00;99960.41;1740933;80;21526;-70
2022/08/25 05:11:53;;;;;;;12.47;4.85;;;;;;;21.83;100.00;99965.40;1705275;82;21064;-70
2022/08/25 05:14:21;;;;;;;8.10;4.70;;;;;;;21.96;100.00;99960.19;1756276;81;21026;-71
2022/08/25 05:16:48;;;;;;;10.65;4.67;;;;;;;22.09;100.00;99955.47;1740082;81;21113;-71
2022/08/25 05:19:14;;;;;;;8.43;4.30;;;;;;;22.19;100.00;99955.84;1741226;81;21522;-71
2022/08/25 05:21:41;;;;;;;8.48;4.20;;;;;;;22.19;100.00;99955.84;1737801;80;21093;-71
2022/08/25 05:24:08;;;;;;;7.20;4.35;;;;;;;22.44;100.00;99947.55;1746007;80;21014;-69
2022/08/25 05:26:36;;;;;;;11.48;4.58;;;;;;;22.66;100.00;99947.92;1743427;80;21063;-69
2022/08/25 05:29:03;;;;;;;11.78;4.72;;;;;;;22.66;100.00;99947.92;1745040;80;20980;-70
2022/08/25 05:31:31;;;;;;;11.75;4.70;;;;;;;22.81;100.00;99947.84;1741059;81;21071;-70
2022/08/25 05:33:59;;;;;;;14.47;5.22;;;;;;;22.92;100.00;99953.13;1746730;81;20984;-70
2022/08/25 05:36:26;;;;;;;8.38;4.70;;;;;;;23.09;100.00;99959.83;1757016;81;21051;-72
2022/08/25 05:38:53;;;;;;;7.95;4.37;;;;;;;23.23;100.00;99945.00;1750249;81;20964;-71
2022/08/25 05:41:23;;;;;;;9.75;4.90;;;;;;;23.33;100.00;99949.24;1751643;79;21095;-70
2022/08/25 05:43:50;;;;;;;11.95;5.42;;;;;;;23.51;100.00;99948.41;1751060;81;20987;-71
2022/08/25 05:46:17;;;;;;;9.73;4.58;;;;;;;23.72;100.00;99947.63;1744259;81;21102;-70
2022/08/25 05:48:43;;;;;;;16.48;5.10;;;;;;;23.83;100.00;99950.13;1752301;81;20971;-71
2022/08/25 05:51:11;;;;;;;9.38;4.90;;;;;;;23.89;100.00;99946.50;1742076;80;22004;-70
2022/08/25 05:53:40;;;;;;;12.95;5.03;;;;;;;23.96;100.00;99945.30;1740108;80;20983;-70
2022/08/25 05:56:07;;;;;;;10.05;4.60;;;;;;;24.02;100.00;99941.13;1735020;81;21059;-72
2022/08/25 05:58:33;;;;;;;10.38;4.62;;;;;;;24.07;100.00;99950.00;1722542;81;21443;-71
2022/08/25 06:03:46;;;;;;;9.23;5.10;;;;;;;24.35;100.00;99936.63;1728802;81;21036;-71
2022/08/25 06:06:14;;;;;;;9.35;4.90;;;;;;;24.60;100.00;99940.84;1753590;81;21014;-73
2022/08/25 06:08:43;;;;;;;12.70;5.17;;;;;;;24.83;100.00;99935.45;1746158;81;20983;-72
2022/08/25 06:11:11;;;;;;;10.35;5.28;;;;;;;25.00;100.00;99937.86;1740731;81;21032;-72
2022/08/25 06:13:38;;;;;;;11.25;5.53;;;;;;;25.03;100.00;99935.73;1737609;82;21004;-72
2022/08/25 06:16:05;;;;;;;9.35;4.85;;;;;;;24.93;100.00;99932.94;1743792;80;21082;-71
2022/08/25 06:18:31;;;;;;;12.23;5.28;;;;;;;24.96;100.00;99935.00;1747962;81;21061;-71
2022/08/25 06:21:01;;;;;;;12.28;5.10;;;;;;;25.12;100.00;99932.96;1756522;81;21011;-70
2022/08/25 06:23:28;;;;;;;12.20;5.05;;;;;;;25.25;100.00;99935.86;1702565;81;21518;-72
2022/08/25 06:25:55;;;;;;;11.33;4.92;;;;;;;25.48;100.00;99935.94;1745839;81;21012;-71
2022/08/25 06:28:21;;;;;;;12.13;5.22;;;;;;;25.65;100.00;99937.49;1747214;81;21478;-71
2022/08/25 06:30:48;;;;;;;7.65;5.20;;;;;;;25.72;100.00;99937.05;1756288;80;21012;-71
2022/08/25 06:33:14;;;;;;;10.60;4.92;;;;;;;25.72;100.00;99937.05;1751564;82;21515;-71
2022/08/25 06:35:42;;;;;;;12.10;5.08;;;;;;;25.85;100.00;99931.33;1751095;81;21095;-71
2022/08/25 06:38:09;;;;;;;10.35;5.22;;;;;;;26.04;100.00;99932.09;1751250;81;21557;-70
2022/08/25 06:40:36;;;;;;;10.03;5.12;;;;;;;26.15;100.00;99933.09;1754951;81;21595;-71
2022/08/25 06:43:05;;;;;;;11.43;4.60;;;;;;;26.22;100.00;99927.67;1729016;81;21026;-72
2022/08/25 06:45:31;;;;;;;10.43;5.40;;;;;;;26.17;100.00;99937.77;1743656;80;21492;-72
2022/08/25 06:47:58;;;;;;;15.83;4.85;;;;;;;26.20;100.00;99935.62;1752034;81;21062;-70
2022/08/25 06:50:24;;;;;;;10.03;5.10;;;;;;;26.28;100.00;99936.56;1755328;80;21373;-72
2022/08/25 06:52:51;;;;;;;10.63;4.72;;;;;;;26.44;100.00;99938.63;1761704;80;21008;-72
2022/08/25 06:55:18;;;;;;;13.25;5.42;;;;;;;26.52;100.00;99941.76;1759157;80;21572;-72
2022/08/25 06:57:44;;;;;;;9.03;5.15;;;;;;;26.67;100.00;99938.61;1747252;80;21531;-71
2022/08/25 07:00:12;;;;;;;10.68;4.92;;;;;;;26.77;100.00;99939.37;1759356;79;21079;-70
2022/08/25 07:02:39;;;;;;;10.18;5.37;;;;;;;26.93;98.65;99945.63;1756414;81;21050;-71
2022/08/25 07:05:06;;;;;;;10.50;5.35;;;;;;;27.06;97.22;99942.84;1756200;79;21095;-70
2022/08/25 07:07:33;;;;;;;14.73;5.28;;;;;;;27.06;96.21;99940.64;1756018;80;21439;-71
2022/08/25 07:09:59;;;;;;;11.48;4.83;;;;;;;27.20;93.82;99942.23;1753086;80;21018;-71
2022/08/25 07:12:26;;;;;;;9.88;4.40;;;;;;;27.29;96.03;99945.55;1756581;81;21977;-73
2022/08/25 07:14:53;;;;;;;9.75;5.20;;;;;;;27.49;98.34;99946.25;1758331;80;20974;-72
2022/08/25 07:17:22;;;;;;;11.60;5.40;;;;;;;27.72;92.79;99948.92;1754877;81;21545;-71
2022/08/25 07:19:49;;;;;;;11.30;5.17;;;;;;;27.83;92.95;99945.66;1752231;80;20950;-70
2022/08/25 07:22:15;;;;;;;11.28;5.17;;;;;;;28.00;87.98;99944.45;1756774;80;21628;-71
2022/08/25 07:24:42;;;;;;;11.05;5.40;;;;;;;28.23;81.26;99944.33;1747092;80;21488;-72
2022/08/25 07:27:08;;;;;;;9.63;4.75;;;;;;;28.43;75.59;99940.70;1750641;79;21046;-72
2022/08/25 07:29:37;;;;;;;11.28;4.72;;;;;;;28.47;70.54;99941.55;1751275;82;21034;-70
2022/08/25 07:32:03;;;;;;;10.55;4.37;;;;;;;28.47;73.81;99929.75;1750245;80;21535;-71
2022/08/25 07:37:15;;;;;;;9.98;4.05;;;;;;;28.78;68.17;99928.42;1745753;81;21086;-70
2022/08/25 07:39:42;;;;;;;11.12;4.28;;;;;;;28.91;63.27;99919.12;1766626;80;21038;-71
2022/08/25 07:42:09;;;;;;;12.30;4.00;;;;;;;29.10;63.65;99921.03;1751898;80;21160;-72
2022/08/25 07:44:35;;;;;;;9.93;4.87;;;;;;;29.20;67.53;99920.06;1750737;80;21062;-71
2022/08/25 07:47:01;;;;;;;12.10;4.62;;;;;;;29.34;66.76;99922.97;1762714;80;21617;-71
2022/08/25 07:49:28;;;;;;;12.50;4.55;;;;;;;29.40;66.28;99924.23;1744598;80;21317;-71
2022/08/25 07:51:54;;;;;;;7.83;4.58;;;;;;;29.33;62.26;99919.39;1724831;81;21042;-70
2022/08/25 07:54:21;;;;;;;9.75;4.72;;;;;;;29.16;62.46;99900.42;1762927;81;21129;-72
2022/08/25 07:56:48;;;;;;;9.83;4.58;;;;;;;29.34;59.97;99912.56;1742708;80;21040;-69
2022/08/25 07:59:14;;;;;;;8.83;4.05;;;;;;;29.41;57.19;99909.80;1757103;80;21404;-70
2022/08/25 08:01:41;;;;;;;8.23;4.30;;;;;;;29.47;53.96;99910.23;1753588;80;21098;-70
2022/08/25 08:04:07;;;;;;;9.33;4.40;;;;;;;29.68;55.89;99896.88;1752457;80;20995;-70
2022/08/25 08:06:34;;;;;;;8.33;3.27;;;;;;;29.76;54.40;99899.92;1754107;80;21028;-70
2022/08/25 08:09:01;;;;;;;6.87;3.33;;;;;;;29.69;51.31;99895.69;1755888;80;21482;-70
2022/08/25 08:11:33;;;;;;;14.70;3.72;;;;;;;29.72;49.31;99895.70;1750786;80;21051;-72
2022/08/25 08:13:59;;;;;;;9.78;3.45;;;;;;;29.94;52.45;99893.75;1749729;80;20999;-70
2022/08/25 08:16:28;;;;;;;8.50;3.42;;;;;;;30.09;51.00;99896.20;1751761;80;20999;-70
2022/08/25 08:18:55;;;;;;;10.10;3.67;;;;;;;30.19;49.21;99891.79;1724235;80;21603;-72
2022/08/25 08:21:25;;;;;;;12.40;3.35;;;;;;;30.33;49.29;99887.58;1760965;80;21562;-70
2022/08/25 08:23:53;;;;;;;9.58;3.10;;;;;;;30.36;47.11;99888.81;1762491;80;20999;-72
2022/08/25 08:26:20;;;;;;;5.42;3.17;;;;;;;30.46;46.35;99891.65;1752644;80;21105;-70
2022/08/25 08:28:47;;;;;;;11.05;3.60;;;;;;;30.59;46.44;99889.22;1763367;80;20971;-71
2022/08/25 08:31:18;;;;;;;7.83;3.20;;;;;;;30.81;47.96;99887.19;1765025;80;21011;-70
2022/08/25 08:33:42;;;;;;;8.65;3.37;;;;;;;31.01;48.48;99889.17;1763214;81;21079;-70
2022/08/25 08:36:10;;;;;;;9.03;3.58;;;;;;;31.19;46.27;99882.69;1749157;80;21046;-70
2022/08/25 08:38:40;;;;;;;9.15;3.27;;;;;;;31.20;43.67;99873.86;1754449;80;21022;-71
2022/08/25 08:44:14;;;;;;;12.88;4.10;;;;;;;31.24;46.49;99877.47;1743393;81;21035;-71
2022/08/25 08:47:16;;;;;;;7.72;3.20;;;;;;;31.30;44.82;99869.41;1741788;81;21393;-72
2022/08/25 08:49:51;;;;;;;7.92;2.85;;;;;;;31.11;45.51;99863.64;1744471;81;21047;-70
2022/08/25 08:52:19;;;;;;;8.73;3.00;;;;;;;31.06;45.91;99865.48;1741782;81;21070;-70
2022/08/25 08:57:19;;;;;;;7.65;3.00;;;;;;;31.32;42.49;99859.97;1798455;78;23001;-71
2022/08/25 08:59:53;;;;;;;7.22;2.80;;;;;;;31.40;43.04;99866.55;1750019;80;21054;-69
2022/08/25 09:02:34;;;;;;;5.40;2.72;;;;;;;31.69;41.98;99860.80;1747849;81;21062;-72
2022/08/25 09:05:05;;;;;;;6.22;3.40;;;;;;;31.76;39.67;99864.37;1769128;80;21459;-72
2022/08/25 09:07:56;;;;;;;6.15;2.85;;;;;;;31.82;41.90;99855.68;1750409;80;21043;-72
2022/08/25 09:10:23;;;;;;;8.63;2.80;;;;;;;31.98;40.15;99865.84;1711772;82;21564;-72
2022/08/25 09:13:09;;;;;;;11.55;3.52;;;;;;;32.02;38.95;99863.00;1742109;81;21083;-73
2022/08/25 09:19:02;;;;;;;6.83;2.83;;;;;;;31.62;39.45;99859.43;1751702;80;21504;-71
2022/08/25 09:22:01;;;;;;;8.38;3.15;;;;;;;31.51;40.08;99856.08;1737248;80;21027;-70
2022/08/25 09:24:56;;;;;;;8.88;3.00;;;;;;;31.61;40.82;99858.63;1681937;80;20995;-69
2022/08/25 09:27:33;;;;;;;6.97;2.72;;;;;;;31.71;40.79;99856.35;1699742;82;21015;-69
2022/08/25 09:30:08;;;;;;;10.82;2.80;;;;;;;31.81;41.04;99858.33;1741560;81;21475;-68
2022/08/25 09:32:41;;;;;;;13.72;3.30;;;;;;;31.95;38.66;99850.39;1760205;81;21095;-70
2022/08/25 09:35:13;;;;;;;8.68;2.85;;;;;;;32.02;38.66;99849.73;1760905;80;20987;-69
2022/08/25 09:37:40;;;;;;;8.63;2.55;;;;;;;31.99;37.72;99851.94;1742710;80;20979;-68
2022/08/25 09:40:08;;;;;;;8.83;2.40;;;;;;;31.88;37.63;99845.61;1754737;82;21054;-69
2022/08/25 09:42:48;;;;;;;7.83;2.60;;;;;;;31.76;36.80;99845.28;1754797;82;20964;-70
2022/08/25 09:45:14;;;;;;;7.42;2.60;;;;;;;31.65;37.55;99841.72;1758182;80;21082;-70
2022/08/25 09:47:42;;;;;;;11.50;2.70;;;;;;;31.52;38.74;99840.80;1759712;81;20987;-69
2022/08/25 09:50:15;;;;;;;8.03;2.75;;;;;;;31.43;38.94;99841.81;1760621;81;21019;-68
2022/08/25 09:52:43;;;;;;;10.15;2.67;;;;;;;31.37;38.29;99844.05;1755009;80;21511;-71
2022/08/25 09:55:24;;;;;;;5.80;1.85;;;;;;;31.26;38.83;99836.27;1761108;80;21884;-68
2022/08/25 09:57:53;;;;;;;7.40;2.10;;;;;;;31.19;35.46;99832.08;1742541;80;20983;-70
2022/08/25 10:00:32;;;;;;;6.12;2.60;;;;;;;31.19;37.57;99826.45;1734486;81;21019;-69
2022/08/25 10:03:19;;;;;;;5.55;2.10;;;;;;;31.23;37.33;99833.67;1738000;80;21020;-70
2022/08/25 10:06:00;;;;;;;8.20;2.33;;;;;;;31.24;37.02;99831.07;1727344;81;21124;-69
2022/08/25 10:08:46;;;;;;;6.40;2.25;;;;;;;31.21;37.25;99826.87;1699473;84;20991;-70
2022/08/25 10:11:36;;;;;;;5.75;2.33;;;;;;;31.14;37.50;99828.30;1743414;80;21034;-69
2022/08/25 10:14:20;;;;;;;8.40;2.17;;;;;;;31.13;38.72;99819.66;1742338;80;20986;-67
2022/08/25 10:16:47;;;;;;;6.42;2.60;;;;;;;31.13;38.13;99816.25;1746299;80;21020;-67
2022/08/25 10:19:27;;;;;;;8.23;2.65;;;;;;;31.14;38.01;99813.64;1750064;80;20979;-66
2022/08/25 10:22:33;;;;;;;5.92;2.20;;;;;;;31.17;38.56;99807.20;1749597;80;21007;-69
2022/08/25 10:25:00;;;;;;;7.47;2.15;;;;;;;31.23;37.30;99810.37;1738687;80;20972;-67
2022/08/25 10:28:05;;;;;;;6.78;1.70;;;;;;;31.24;36.56;99807.17;1743651;80;20989;-67
2022/08/25 10:30:52;;;;;;;5.70;1.87;;;;;;;31.26;35.53;99806.74;1701981;82;21117;-67
2022/08/25 10:33:47;;;;;;;8.65;2.58;;;;;;;31.23;35.84;99804.15;1685662;82;21568;-67
2022/08/25 10:36:24;;;;;;;4.97;2.33;;;;;;;31.29;35.72;99803.11;1711722;82;21031;-69
2022/08/25 10:38:56;;;;;;;5.70;2.67;;;;;;;31.35;36.86;99803.70;1747227;80;20996;-70
2022/08/25 10:41:44;;;;;;;6.92;2.25;;;;;;;31.38;36.76;99797.85;1747223;80;21046;-69
2022/08/25 10:47:43;;;;;;;6.15;2.22;;;;;;;31.42;36.67;99791.61;1753731;80;21070;-69
2022/08/25 10:50:31;;;;;;;6.87;2.50;;;;;;;31.41;36.69;99804.06;1743867;80;21056;-70
2022/08/25 10:53:15;;;;;;;4.80;2.00;;;;;;;31.28;35.90;99790.28;1737783;81;20964;-69
2022/08/25 10:56:05;;;;;;;7.33;1.95;;;;;;;31.10;35.02;99783.34;1745312;80;21094;-71
2022/08/25 10:58:55;;;;;;;4.12;2.00;;;;;;;30.98;37.07;99783.77;1758207;80;20970;-71
2022/08/25 11:01:56;;;;;;;4.97;2.00;;;;;;;31.00;36.35;99775.72;1742528;80;22400;-70
2022/08/25 11:04:37;;;;;;;5.75;2.08;;;;;;;30.96;35.32;99776.34;1751350;80;21046;-71
2022/08/25 11:07:24;;;;;;;3.05;1.72;;;;;;;30.84;36.03;99773.96;1750503;80;21045;-69
2022/08/25 11:09:51;;;;;;;4.42;1.95;;;;;;;30.91;36.27;99762.09;1759212;80;21021;-68
2022/08/25 11:12:31;;;;;;;4.35;1.62;;;;;;;31.10;36.33;99773.50;1719575;83;21056;-70
2022/08/25 11:15:02;;;;;;;5.10;1.70;;;;;;;31.30;35.52;99764.74;1666291;84;21549;-70
2022/08/25 11:17:50;;;;;;;4.92;1.80;;;;;;;31.45;34.40;99761.24;1710923;82;21010;-70
2022/08/25 11:20:20;;;;;;;8.08;1.80;;;;;;;31.43;32.96;99758.83;1685143;83;21123;-70
2022/08/25 11:22:54;;;;;;;6.08;1.62;;;;;;;31.33;33.15;99761.70;1695551;83;21040;-70
2022/08/25 11:25:30;;;;;;;5.85;3.10;;;;;;;31.27;32.43;99758.53;1691383;83;21059;-70
2022/08/25 11:28:04;;;;;;;5.03;1.87;;;;;;;31.28;32.92;99752.31;1672240;84;21607;-70
2022/08/25 11:30:30;;;;;;;5.92;3.00;;;;;;;31.34;34.15;99743.03;1669405;84;21044;-71
2022/08/25 11:32:57;;;;;;;5.87;1.62;;;;;;;31.46;33.67;99749.56;1700117;83;21502;-69
2022/08/25 11:35:41;;;;;;;6.35;2.15;;;;;;;31.56;32.58;99746.53;1694875;83;21392;-71
2022/08/25 11:38:23;;;;;;;3.83;1.57;;;;;;;31.64;32.90;99743.84;1695920;83;21433;-69
2022/08/25 11:41:01;;;;;;;3.27;1.50;;;;;;;31.75;33.99;99743.16;1686503;83;21076;-70
2022/08/25 11:43:51;;;;;;;3.98;1.72;;;;;;;31.87;32.74;99744.67;1686445;83;21031;-68
2022/08/25 11:47:02;;;;;;;4.78;1.65;;;;;;;31.97;32.38;99729.70;1708526;82;21023;-69
2022/08/25 11:49:43;;;;;;;4.00;1.55;;;;;;;31.99;31.98;99730.11;1707438;83;21023;-69
2022/08/25 11:52:38;;;;;;;3.27;1.45;;;;;;;31.99;32.26;99728.06;1713427;82;21517;-68
2022/08/25 11:55:08;;;;;;;3.58;1.67;;;;;;;32.00;32.36;99725.45;1732969;82;21105;-69
2022/08/25 11:57:35;;;;;;;2.80;1.57;;;;;;;32.06;32.87;99716.77;1711174;82;20999;-71